Time;durP1;ratioP1;P1;durP2;ratioP2;P2;SDS_P1;SDS_P2;PMS_P1;PMS_P2;Temp;Humidity;BMP_temperature;BMP_pressure;BME280_temperature;BME280_humidity;BME280_pressure;Samples;Min_cycle;Max_cycle;Signal;HPM_P1;HPM_P2
2023/07/25 00:01:07;;;;;;;4.22;1.38;;;;;;;13.38;78.60;100511.13;5031169;28;20053;-46
2023/07/25 00:03:34;;;;;;;2.35;1.63;;;;;;;13.36;78.68;100516.25;5017560;28;20049;-43
2023/07/25 00:06:03;;;;;;;3.45;1.20;;;;;;;13.36;78.55;100507.91;5029049;28;20127;-44
2023/07/25 00:08:31;;;;;;;3.70;1.40;;;;;;;13.34;78.84;100513.06;5029427;28;20511;-45
2023/07/25 00:11:00;;;;;;;3.80;1.50;;;;;;;13.30;78.53;100503.81;5031272;28;20406;-44
2023/07/25 00:13:27;;;;;;;2.95;1.40;;;;;;;13.24;78.75;100508.88;5007426;28;20045;-43
2023/07/25 00:15:54;;;;;;;4.25;1.77;;;;;;;13.21;78.83;100506.06;5030949;28;20048;-44
2023/07/25 00:18:21;;;;;;;4.07;1.40;;;;;;;13.18;78.87;100515.13;5031152;28;20492;-43
2023/07/25 00:20:48;;;;;;;2.45;1.20;;;;;;;13.15;78.90;100515.88;5030759;28;20509;-43
2023/07/25 00:23:15;;;;;;;4.05;1.77;;;;;;;13.10;79.14;100513.38;5022404;28;20045;-44
2023/07/25 00:25:42;;;;;;;5.55;1.90;;;;;;;13.09;79.58;100511.78;5027751;28;20491;-43
2023/07/25 00:28:09;;;;;;;5.65;1.83;;;;;;;13.08;79.42;100510.19;5030288;28;20045;-44
2023/07/25 00:30:36;;;;;;;2.65;1.58;;;;;;;13.03;79.36;100513.19;5030162;28;20073;-43
2023/07/25 00:33:03;;;;;;;2.97;1.52;;;;;;;13.00;79.53;100511.97;5025734;28;20132;-44
2023/07/25 00:35:30;;;;;;;3.25;1.70;;;;;;;12.96;79.74;100513.06;5030672;28;20141;-45
2023/07/25 00:37:57;;;;;;;2.17;1.17;;;;;;;12.88;79.89;100511.31;5013563;28;20053;-43
2023/07/25 00:40:24;;;;;;;4.25;1.85;;;;;;;12.86;80.02;100514.47;5027601;28;20566;-45
2023/07/25 00:42:54;;;;;;;3.78;1.63;;;;;;;12.83;80.27;100513.22;5011927;28;20365;-44
2023/07/25 00:45:22;;;;;;;4.38;2.15;;;;;;;12.83;80.13;100506.88;5034746;28;20042;-46
2023/07/25 00:47:49;;;;;;;4.22;1.52;;;;;;;12.79;80.35;100504.00;5034676;28;20045;-43
2023/07/25 00:50:16;;;;;;;1.75;1.25;;;;;;;12.78;80.25;100502.41;5034439;28;20041;-45
2023/07/25 00:52:43;;;;;;;2.13;1.38;;;;;;;12.74;80.49;100512.63;5006195;28;20038;-44
2023/07/25 00:55:12;;;;;;;3.85;2.13;;;;;;;12.72;80.73;100514.16;5031294;28;20041;-45
2023/07/25 00:57:39;;;;;;;2.72;1.15;;;;;;;12.68;80.80;100511.31;5024754;28;20069;-44
2023/07/25 01:00:06;;;;;;;3.42;1.73;;;;;;;12.66;80.66;100507.28;5032149;28;20099;-44
2023/07/25 01:02:34;;;;;;;3.28;1.75;;;;;;;12.63;80.80;100506.03;5025654;28;20054;-44
2023/07/25 01:05:01;;;;;;;2.70;1.38;;;;;;;12.60;80.96;100512.31;5032284;28;20049;-45
2023/07/25 01:07:30;;;;;;;2.72;1.48;;;;;;;12.58;81.05;100503.56;5034663;28;20099;-44
2023/07/25 01:09:56;;;;;;;4.22;1.88;;;;;;;12.58;81.28;100506.34;5034341;28;20045;-44
2023/07/25 01:12:24;;;;;;;5.45;2.13;;;;;;;12.57;81.44;100496.41;5029378;28;20492;-44
2023/07/25 01:14:51;;;;;;;5.22;2.15;;;;;;;12.57;81.38;100495.59;5013635;28;20490;-44
2023/07/25 01:17:24;;;;;;;2.85;1.85;;;;;;;12.53;81.45;100495.53;5034573;28;20134;-44
2023/07/25 01:19:52;;;;;;;2.75;1.63;;;;;;;12.49;81.64;100497.44;5016772;28;20076;-45
2023/07/25 01:22:25;;;;;;;3.33;1.50;;;;;;;12.47;81.52;100502.53;5033235;28;20038;-44
2023/07/25 01:24:54;;;;;;;2.35;1.65;;;;;;;12.46;81.62;100508.44;5034182;28;20056;-45
2023/07/25 01:27:21;;;;;;;5.00;1.52;;;;;;;12.46;81.65;100505.69;5016084;28;20373;-43
2023/07/25 01:29:48;;;;;;;3.03;1.77;;;;;;;12.44;81.95;100497.72;5034468;28;20382;-44
2023/07/25 01:32:15;;;;;;;3.70;1.40;;;;;;;12.46;81.86;100498.16;5022605;28;20050;-45
2023/07/25 01:34:42;;;;;;;8.07;2.83;;;;;;;12.49;81.83;100500.22;5015616;28;20053;-44
2023/07/25 01:37:09;;;;;;;2.35;1.88;;;;;;;12.46;81.64;100498.16;5016155;28;20056;-46
2023/07/25 01:39:37;;;;;;;4.00;1.75;;;;;;;12.41;81.80;100487.34;5033940;28;20514;-44
2023/07/25 01:42:04;;;;;;;3.55;2.00;;;;;;;12.38;82.09;100492.81;5015267;28;20044;-45
2023/07/25 01:44:30;;;;;;;2.00;1.48;;;;;;;12.36;81.99;100500.69;5034312;28;20045;-44
2023/07/25 01:46:57;;;;;;;4.35;1.75;;;;;;;12.32;82.14;100491.47;5032907;28;20049;-44
2023/07/25 01:49:24;;;;;;;5.00;1.80;;;;;;;12.28;82.31;100494.19;5030354;28;20046;-44
2023/07/25 01:51:51;;;;;;;2.85;1.80;;;;;;;12.27;82.54;100486.22;5020439;28;20541;-43
2023/07/25 01:54:17;;;;;;;3.75;1.52;;;;;;;12.26;82.40;100498.50;5031233;28;20047;-46
2023/07/25 01:56:44;;;;;;;3.55;1.77;;;;;;;12.23;82.53;100492.47;5033337;28;20046;-44
2023/07/25 01:59:16;;;;;;;2.40;1.63;;;;;;;12.19;82.82;100485.25;5016809;28;20156;-44
2023/07/25 02:01:43;;;;;;;3.90;2.00;;;;;;;12.18;82.82;100478.06;5032940;28;20325;-44
2023/07/25 02:04:10;;;;;;;4.97;2.00;;;;;;;12.14;82.79;100479.97;5025598;28;20053;-44
2023/07/25 02:06:37;;;;;;;4.93;1.67;;;;;;;12.10;83.12;100476.31;5024144;28;20449;-44
2023/07/25 02:09:04;;;;;;;4.57;1.40;;;;;;;12.06;83.11;100479.03;5033261;28;20049;-44
2023/07/25 02:11:30;;;;;;;3.05;1.75;;;;;;;12.07;83.21;100479.81;5020155;28;20046;-47
2023/07/25 02:13:58;;;;;;;3.78;2.25;;;;;;;12.04;83.25;100488.88;5032209;28;20037;-44
2023/07/25 02:16:25;;;;;;;6.40;1.98;;;;;;;12.01;83.32;100484.84;5033511;28;20050;-45
2023/07/25 02:18:51;;;;;;;3.50;2.10;;;;;;;12.01;nan;100481.25;5033107;28;20046;-44
2023/07/25 02:21:19;;;;;;;3.75;1.98;;;;;;;12.02;83.59;100480.13;5032117;28;20115;-47
2023/07/25 02:23:46;;;;;;;3.75;2.30;;;;;;;12.03;83.50;100481.69;5017371;28;20041;-44
2023/07/25 02:26:12;;;;;;;4.47;1.60;;;;;;;12.04;83.37;100488.88;5021568;28;20451;-44
2023/07/25 02:28:39;;;;;;;3.95;1.88;;;;;;;12.03;83.42;100487.25;5033039;28;20049;-44
2023/07/25 02:31:06;;;;;;;3.72;2.00;;;;;;;12.04;83.47;100484.13;5032928;28;20045;-43
2023/07/25 02:33:33;;;;;;;3.63;1.90;;;;;;;12.07;83.36;100477.06;5032771;28;20111;-45
2023/07/25 02:35:59;;;;;;;2.42;1.40;;;;;;;12.08;83.48;100478.66;5025915;28;20392;-45
2023/07/25 02:38:27;;;;;;;5.57;2.08;;;;;;;12.03;83.51;100476.16;5038308;28;20060;-45
2023/07/25 02:40:53;;;;;;;3.67;1.83;;;;;;;12.01;83.50;100481.25;5022763;28;20048;-44
2023/07/25 02:43:22;;;;;;;4.90;1.95;;;;;;;12.01;83.45;100472.94;5032703;28;20050;-44
2023/07/25 02:45:50;;;;;;;3.63;1.70;;;;;;;11.95;83.59;100480.75;5009903;28;20476;-45
2023/07/25 02:48:18;;;;;;;6.30;1.60;;;;;;;11.93;83.61;100477.53;5025485;28;20079;-44
2023/07/25 02:50:44;;;;;;;4.30;1.70;;;;;;;11.95;83.47;100483.50;5025795;28;20122;-44
2023/07/25 02:53:11;;;;;;;4.07;2.65;;;;;;;11.94;83.25;100481.13;5029710;28;20085;-44
2023/07/25 02:55:39;;;;;;;5.82;2.25;;;;;;;11.91;83.43;100485.41;5019248;28;20128;-44
2023/07/25 02:58:05;;;;;;;6.50;2.35;;;;;;;11.83;83.75;100488.38;5023547;28;20471;-44
2023/07/25 03:03:03;;;;;;;6.88;2.10;;;;;;;11.71;83.95;100480.94;4967898;28;20043;-48
2023/07/25 03:05:30;;;;;;;6.25;1.90;;;;;;;11.68;84.12;100469.72;4975586;28;20043;-45
2023/07/25 03:07:57;;;;;;;3.95;2.22;;;;;;;11.64;84.31;100477.97;4955690;28;20136;-45
2023/07/25 03:10:23;;;;;;;9.75;3.13;;;;;;;11.61;84.13;100481.47;4973254;28;20515;-46
2023/07/25 03:12:52;;;;;;;3.55;1.77;;;;;;;11.57;84.14;100486.09;4969835;28;20404;-45
2023/07/25 03:15:20;;;;;;;5.15;2.03;;;;;;;11.50;84.14;100483.16;4970668;28;20510;-44
2023/07/25 03:17:47;;;;;;;3.63;1.70;;;;;;;11.46;84.39;100483.06;4972473;28;20137;-45
2023/07/25 03:20:14;;;;;;;6.15;2.33;;;;;;;11.39;84.64;100480.13;4955120;28;20109;-44
2023/07/25 03:22:41;;;;;;;1.98;1.73;;;;;;;11.41;84.75;100488.09;4971064;28;20401;-44
2023/07/25 03:25:09;;;;;;;3.80;2.08;;;;;;;11.41;84.66;100488.88;4963316;28;20046;-45
2023/07/25 03:27:36;;;;;;;4.10;2.75;;;;;;;11.38;84.47;100484.06;4970001;28;20493;-44
2023/07/25 03:30:04;;;;;;;3.90;1.90;;;;;;;11.38;84.51;100480.47;4971204;28;20054;-45
2023/07/25 03:32:31;;;;;;;6.38;2.55;;;;;;;11.34;84.33;100483.16;4969866;28;20055;-45
2023/07/25 03:34:58;;;;;;;6.82;2.67;;;;;;;11.33;84.39;100477.97;4953523;28;20035;-45
2023/07/25 03:37:24;;;;;;;5.45;1.98;;;;;;;11.29;84.26;100479.84;4971577;28;20062;-44
2023/07/25 03:39:51;;;;;;;4.68;2.60;;;;;;;11.21;84.47;100469.72;4969521;28;20058;-45
2023/07/25 03:42:18;;;;;;;3.22;2.25;;;;;;;11.18;84.64;100479.56;4968336;28;20042;-44
2023/07/25 03:44:45;;;;;;;4.70;2.05;;;;;;;11.19;84.64;100472.88;4954525;28;20137;-46
2023/07/25 03:47:12;;;;;;;4.05;2.40;;;;;;;11.17;84.76;100466.06;4967485;28;20047;-45
2023/07/25 03:49:39;;;;;;;6.82;2.15;;;;;;;11.17;84.96;100477.97;4972672;28;20042;-44
2023/07/25 03:52:06;;;;;;;6.85;3.92;;;;;;;11.13;84.84;100473.47;4971755;28;20488;-45
2023/07/25 03:54:33;;;;;;;6.30;2.80;;;;;;;11.12;84.94;100480.97;4972758;28;20137;-44
2023/07/25 03:57:01;;;;;;;6.68;2.40;;;;;;;11.08;85.01;100474.53;4960898;28;20428;-45
2023/07/25 03:59:28;;;;;;;2.80;2.10;;;;;;;11.02;84.98;100481.50;4970373;28;20106;-45
2023/07/25 04:01:55;;;;;;;5.55;3.28;;;;;;;10.98;85.15;100488.91;4972560;28;20046;-45
2023/07/25 04:04:22;;;;;;;3.15;2.05;;;;;;;10.88;85.32;100481.13;4971625;28;20106;-44
2023/07/25 04:06:48;;;;;;;7.45;2.58;;;;;;;10.85;85.67;100484.59;4991841;28;20457;-44
2023/07/25 04:09:15;;;;;;;4.47;2.10;;;;;;;10.85;85.78;100481.81;4992151;28;20046;-45
2023/07/25 04:11:42;;;;;;;5.22;2.20;;;;;;;10.85;85.83;100481.81;4991855;28;20424;-45
2023/07/25 04:14:09;;;;;;;7.65;3.47;;;;;;;10.81;85.80;100480.91;4995240;28;20050;-45
2023/07/25 04:16:36;;;;;;;3.78;2.15;;;;;;;10.80;85.97;100479.31;4990750;28;20427;-45
2023/07/25 04:19:02;;;;;;;5.70;2.63;;;;;;;10.80;86.19;100479.31;4991350;28;20046;-45
2023/07/25 04:21:29;;;;;;;6.70;3.38;;;;;;;10.78;86.17;100481.59;4979233;28;20092;-45
2023/07/25 04:23:56;;;;;;;5.43;2.70;;;;;;;10.80;86.20;100479.31;4991032;28;20463;-45
2023/07/25 04:26:23;;;;;;;6.53;2.28;;;;;;;10.83;86.47;100476.63;4990305;28;20058;-44
2023/07/25 04:28:50;;;;;;;4.25;2.33;;;;;;;10.86;86.08;100475.91;4989122;28;20054;-45
2023/07/25 04:31:17;;;;;;;4.40;2.75;;;;;;;10.89;86.42;100478.00;4994526;28;20046;-45
2023/07/25 04:33:44;;;;;;;8.10;3.25;;;;;;;10.96;86.49;100485.69;4990043;28;20050;-47
2023/07/25 04:36:10;;;;;;;10.27;3.53;;;;;;;10.95;86.43;100482.13;4988736;28;20089;-46
2023/07/25 04:38:37;;;;;;;6.05;2.40;;;;;;;10.93;86.48;100483.63;4991039;28;20050;-44
2023/07/25 04:41:04;;;;;;;11.70;3.50;;;;;;;10.95;86.50;100484.88;4991024;28;20067;-45
2023/07/25 04:43:31;;;;;;;4.68;2.97;;;;;;;11.01;86.58;100488.22;4995785;28;20041;-45
2023/07/25 04:45:57;;;;;;;6.05;2.28;;;;;;;11.01;86.48;100485.44;5003016;28;20460;-45
2023/07/25 04:48:24;;;;;;;6.68;2.33;;;;;;;11.04;86.56;100489.47;4992968;28;20065;-45
2023/07/25 04:50:51;;;;;;;12.43;2.35;;;;;;;11.05;86.44;100491.88;4990356;28;20389;-45
2023/07/25 04:53:18;;;;;;;5.63;1.90;;;;;;;11.08;86.64;100488.41;4990566;28;20053;-46
2023/07/25 04:55:45;;;;;;;4.60;2.25;;;;;;;11.12;86.66;100494.81;4988510;28;20101;-48
2023/07/25 04:58:12;;;;;;;5.28;2.70;;;;;;;11.14;86.84;100494.47;4990699;28;20038;-45
2023/07/25 05:00:38;;;;;;;5.65;2.53;;;;;;;11.17;86.83;100489.06;4990301;28;20042;-46
2023/07/25 05:03:05;;;;;;;5.07;2.38;;;;;;;11.22;86.96;100491.56;4992064;28;20547;-46
2023/07/25 05:05:32;;;;;;;3.42;2.72;;;;;;;11.28;87.07;100501.19;4991064;28;20133;-45
2023/07/25 05:07:59;;;;;;;3.38;2.10;;;;;;;11.30;86.94;100496.13;4992736;28;20145;-45
2023/07/25 05:10:26;;;;;;;5.85;2.17;;;;;;;11.33;87.02;100500.16;4971724;28;20042;-44
2023/07/25 05:12:53;;;;;;;5.57;2.58;;;;;;;11.38;87.17;100505.44;4974618;28;20125;-46
2023/07/25 05:15:19;;;;;;;3.95;2.33;;;;;;;11.42;87.21;100496.03;4991709;28;20113;-45
2023/07/25 05:17:46;;;;;;;6.25;2.35;;;;;;;11.42;87.07;100498.81;4991714;28;20547;-46
2023/07/25 05:20:13;;;;;;;4.40;2.35;;;;;;;11.40;86.61;100497.56;4993489;28;20038;-44
2023/07/25 05:22:40;;;;;;;2.85;2.17;;;;;;;11.38;86.99;100503.47;4999383;28;20385;-45
2023/07/25 05:25:07;;;;;;;5.05;2.25;;;;;;;11.37;87.05;100501.84;4991466;28;20067;-45
2023/07/25 05:27:34;;;;;;;8.80;2.90;;;;;;;11.37;86.95;100509.34;4992357;28;20101;-45
2023/07/25 05:30:02;;;;;;;5.13;2.67;;;;;;;11.35;86.92;100501.41;4987383;28;20042;-45
2023/07/25 05:32:29;;;;;;;4.80;3.03;;;;;;;11.31;87.03;100506.03;4994128;28;20042;-45
2023/07/25 05:34:56;;;;;;;4.63;2.17;;;;;;;11.27;86.83;100509.88;4994652;28;20050;-44
2023/07/25 05:37:33;;;;;;;5.50;2.45;;;;;;;11.25;86.95;100509.44;4994231;28;20038;-45
2023/07/25 05:40:00;;;;;;;4.88;2.85;;;;;;;11.20;86.95;100504.94;4994856;28;20043;-45
2023/07/25 05:42:27;;;;;;;6.05;2.50;;;;;;;11.17;87.06;100508.44;4994648;28;20042;-45
2023/07/25 05:44:53;;;;;;;3.50;2.20;;;;;;;11.14;87.37;100509.16;4994387;28;20145;-45
2023/07/25 05:47:21;;;;;;;4.43;2.38;;;;;;;11.14;87.27;100511.91;4993384;28;20046;-45
2023/07/25 05:49:48;;;;;;;4.45;2.05;;;;;;;11.15;87.38;100510.75;4993540;28;20053;-45
2023/07/25 05:52:14;;;;;;;4.25;2.70;;;;;;;11.16;87.67;100511.56;4976199;28;20042;-48
2023/07/25 05:54:41;;;;;;;4.65;2.55;;;;;;;11.19;87.34;100514.44;4994465;28;20077;-45
2023/07/25 05:57:08;;;;;;;6.95;3.25;;;;;;;11.21;87.53;100514.88;4994314;28;20043;-45
2023/07/25 05:59:34;;;;;;;2.78;2.28;;;;;;;11.26;87.40;100522.94;4994296;28;20042;-46
2023/07/25 06:02:03;;;;;;;5.68;2.60;;;;;;;11.29;87.38;100524.19;4989190;28;20077;-45
2023/07/25 06:04:30;;;;;;;3.10;2.13;;;;;;;11.28;87.17;100520.59;4990871;28;20046;-45
2023/07/25 06:06:57;;;;;;;3.53;2.50;;;;;;;11.29;87.55;100519.44;4994547;28;20499;-45
2023/07/25 06:09:24;;;;;;;2.80;1.85;;;;;;;11.33;87.54;100522.31;4993876;28;20428;-45
2023/07/25 06:11:51;;;;;;;4.03;2.50;;;;;;;11.35;87.66;100523.56;4994137;28;20046;-45
2023/07/25 06:14:18;;;;;;;5.63;2.30;;;;;;;11.36;87.58;100519.63;5005755;28;20049;-46
2023/07/25 06:16:44;;;;;;;5.60;2.67;;;;;;;11.40;87.78;100531.63;4994138;28;20394;-45
2023/07/25 06:19:11;;;;;;;4.57;2.70;;;;;;;11.41;87.65;100533.22;4992928;28;20085;-45
2023/07/25 06:21:38;;;;;;;5.88;2.70;;;;;;;11.43;87.75;100530.09;4992990;28;20396;-45
2023/07/25 06:24:05;;;;;;;4.90;1.95;;;;;;;11.47;87.97;100526.25;4990403;28;20059;-45
2023/07/25 06:26:32;;;;;;;7.05;2.38;;;;;;;11.51;87.94;100529.94;4996573;28;20555;-45
2023/07/25 06:28:59;;;;;;;5.32;2.83;;;;;;;11.59;88.11;100540.06;4992811;28;20038;-45
2023/07/25 06:31:26;;;;;;;5.57;2.95;;;;;;;11.67;88.14;100537.47;4994916;28;20050;-44
2023/07/25 06:33:53;;;;;;;5.40;2.40;;;;;;;11.75;88.25;100542.06;4992664;28;20096;-45
2023/07/25 06:36:19;;;;;;;9.75;2.47;;;;;;;11.80;88.22;100550.91;4991972;28;20057;-45
2023/07/25 06:38:46;;;;;;;7.45;3.92;;;;;;;11.82;88.10;100545.00;4997592;28;20057;-45
2023/07/25 06:41:13;;;;;;;6.72;2.38;;;;;;;11.86;88.04;100545.91;4989348;28;20043;-45
2023/07/25 06:43:40;;;;;;;2.53;2.08;;;;;;;11.92;88.10;100541.69;4995368;28;20050;-45
2023/07/25 06:46:07;;;;;;;5.70;2.28;;;;;;;12.00;88.34;100540.69;4991646;28;20133;-46
2023/07/25 06:48:33;;;;;;;5.15;1.98;;;;;;;12.05;88.17;100540.41;4993444;28;20070;-45
2023/07/25 06:51:00;;;;;;;4.35;2.38;;;;;;;12.11;88.20;100544.53;4993084;28;20049;-45
2023/07/25 06:53:27;;;;;;;4.65;2.67;;;;;;;12.16;88.17;100547.03;4992223;28;20046;-45
2023/07/25 06:55:54;;;;;;;6.72;2.35;;;;;;;12.23;88.20;100550.00;4992968;28;20050;-45
2023/07/25 06:58:21;;;;;;;3.90;3.00;;;;;;;12.30;88.14;100555.69;4992913;28;20514;-45
2023/07/25 07:00:48;;;;;;;7.88;2.35;;;;;;;12.34;88.06;100556.56;4993058;28;20065;-45
2023/07/25 07:03:15;;;;;;;4.40;2.75;;;;;;;12.40;88.19;100552.34;4992926;28;20046;-46
2023/07/25 07:05:53;;;;;;;3.90;2.50;;;;;;;12.47;87.96;100560.84;4993069;28;20109;-45
2023/07/25 07:08:23;;;;;;;3.67;2.30;;;;;;;12.51;87.94;100561.72;4991383;28;20052;-45
2023/07/25 07:10:54;;;;;;;3.75;2.08;;;;;;;12.58;88.11;100558.28;4989152;28;20046;-47
2023/07/25 07:13:22;;;;;;;5.53;2.40;;;;;;;12.64;87.88;100556.84;4990564;28;20053;-44
2023/07/25 07:15:49;;;;;;;2.70;1.65;;;;;;;12.73;88.12;100563.78;4994781;28;20038;-48
2023/07/25 07:18:16;;;;;;;6.18;1.73;;;;;;;12.78;87.84;100557.97;5000464;28;20046;-46
2023/07/25 07:20:47;;;;;;;7.28;1.90;;;;;;;12.87;87.98;100559.75;4992670;28;20109;-45
2023/07/25 07:23:14;;;;;;;3.42;2.20;;;;;;;12.97;87.85;100564.72;4992733;28;20488;-45
2023/07/25 07:25:44;;;;;;;4.03;1.88;;;;;;;13.07;88.00;100564.16;4992765;28;20046;-45
2023/07/25 07:28:12;;;;;;;4.70;2.25;;;;;;;13.19;87.94;100561.19;4990947;28;20112;-46
2023/07/25 07:30:39;;;;;;;5.47;2.70;;;;;;;13.30;88.22;100556.66;4990527;28;20053;-46
2023/07/25 07:33:06;;;;;;;8.98;3.67;;;;;;;13.41;88.24;100561.25;4992259;28;20500;-46
2023/07/25 07:35:33;;;;;;;29.15;15.82;;;;;;;13.50;88.82;100555.47;4991374;28;20448;-46
2023/07/25 07:38:00;;;;;;;9.02;4.75;;;;;;;13.60;89.38;100560.41;4980516;28;20046;-46
2023/07/25 07:40:28;;;;;;;8.80;2.40;;;;;;;13.76;89.95;100557.50;4990973;28;20036;-46
2023/07/25 07:42:55;;;;;;;5.93;2.10;;;;;;;13.90;90.31;100561.31;4990063;28;20050;-47
2023/07/25 07:45:23;;;;;;;4.90;2.85;;;;;;;14.03;90.89;100562.75;4991684;28;20042;-46
2023/07/25 07:47:51;;;;;;;3.75;1.80;;;;;;;14.23;91.78;100571.00;4994059;28;20050;-49
2023/07/25 07:50:18;;;;;;;4.05;1.98;;;;;;;14.42;92.42;100563.41;4992704;28;20138;-48
2023/07/25 07:52:46;;;;;;;5.68;2.45;;;;;;;14.64;93.13;100570.06;4975158;28;20057;-46
2023/07/25 07:55:14;;;;;;;11.32;4.75;;;;;;;14.86;94.03;100566.38;4992350;28;20046;-46
2023/07/25 07:57:42;;;;;;;5.35;2.55;;;;;;;15.14;95.12;100572.31;4992256;28;20555;-46
2023/07/25 08:00:11;;;;;;;4.03;1.77;;;;;;;15.45;96.45;100575.88;4987561;28;20046;-46
2023/07/25 08:02:38;;;;;;;6.07;2.08;;;;;;;15.81;97.21;100566.69;4966208;28;20505;-46
2023/07/25 08:05:06;;;;;;;4.53;1.75;;;;;;;16.22;97.53;100571.03;4974429;28;20035;-47
2023/07/25 08:07:33;;;;;;;5.90;1.98;;;;;;;16.70;96.03;100579.38;4971396;28;20047;-46
2023/07/25 08:10:00;;;;;;;5.07;2.22;;;;;;;17.35;93.68;100576.47;4992628;28;20042;-47
2023/07/25 08:12:27;;;;;;;4.05;2.00;;;;;;;17.99;90.14;100577.44;4990895;28;20488;-46
2023/07/25 08:14:54;;;;;;;3.42;1.85;;;;;;;18.70;86.10;100581.81;4991007;28;21893;-49
2023/07/25 08:17:21;;;;;;;4.97;2.53;;;;;;;19.36;82.16;100587.56;4990653;28;20046;-50
2023/07/25 08:19:49;;;;;;;7.32;1.58;;;;;;;20.09;76.94;100590.38;4988567;28;20046;-47
2023/07/25 08:22:16;;;;;;;4.78;1.75;;;;;;;20.72;72.82;100589.81;4990069;28;20053;-46
2023/07/25 08:24:43;;;;;;;4.72;1.38;;;;;;;20.96;69.35;100594.38;4992495;28;20146;-46
2023/07/25 08:27:10;;;;;;;3.60;1.80;;;;;;;21.38;66.68;100589.47;4989657;28;20050;-47
2023/07/25 08:29:41;;;;;;;3.67;1.65;;;;;;;21.89;64.43;100586.34;4988793;28;20061;-46
2023/07/25 08:32:09;;;;;;;2.47;1.33;;;;;;;22.25;62.54;100593.00;4990989;28;20042;-52
2023/07/25 08:34:38;;;;;;;4.05;1.80;;;;;;;22.19;60.99;100591.09;4990212;28;20046;-47
2023/07/25 08:37:06;;;;;;;2.50;1.30;;;;;;;22.45;59.45;100602.31;4988772;28;20050;-49
2023/07/25 08:39:35;;;;;;;2.65;1.23;;;;;;;22.70;58.49;100595.47;4990500;28;20105;-46
2023/07/25 08:42:09;;;;;;;3.83;1.70;;;;;;;22.98;57.17;100600.59;4991012;28;20046;-47
2023/07/25 08:44:39;;;;;;;2.03;1.63;;;;;;;23.19;55.53;100603.00;4988235;28;20050;-49
2023/07/25 08:47:16;;;;;;;2.95;1.38;;;;;;;23.32;55.24;100601.09;4988287;28;20488;-46
2023/07/25 08:49:46;;;;;;;4.30;1.35;;;;;;;23.47;54.13;100593.94;4990951;28;20046;-48
2023/07/25 08:52:17;;;;;;;3.30;1.17;;;;;;;23.64;53.54;100594.78;4989076;28;20145;-47
2023/07/25 08:54:48;;;;;;;4.00;1.48;;;;;;;23.89;52.88;100600.66;4989869;28;20056;-46
2023/07/25 08:57:16;;;;;;;1.80;1.50;;;;;;;24.31;51.48;100598.84;4991830;28;20053;-46
2023/07/25 08:59:44;;;;;;;2.30;1.70;;;;;;;24.51;50.40;100596.75;4987304;28;20042;-46
2023/07/25 09:02:12;;;;;;;2.72;2.30;;;;;;;24.69;49.18;100591.41;4989290;28;20058;-48
2023/07/25 09:04:40;;;;;;;5.45;2.13;;;;;;;24.77;48.37;100592.81;4988467;28;20053;-47
2023/07/25 09:07:07;;;;;;;2.08;1.55;;;;;;;24.45;47.75;100581.53;4989599;28;20042;-46
2023/07/25 09:09:34;;;;;;;2.63;1.67;;;;;;;23.65;48.15;100579.41;4991103;28;20047;-46
2023/07/25 09:12:01;;;;;;;2.65;1.60;;;;;;;23.67;48.78;100582.59;4993802;28;20042;-51
2023/07/25 09:14:28;;;;;;;3.03;1.50;;;;;;;24.16;48.15;100575.78;4994430;28;20066;-45
2023/07/25 09:16:55;;;;;;;2.65;1.70;;;;;;;24.64;46.75;100583.44;4995299;28;20046;-39
2023/07/25 09:19:22;;;;;;;4.28;2.28;;;;;;;24.99;45.34;100580.91;4994256;28;20050;-39
2023/07/25 09:21:51;;;;;;;4.35;1.75;;;;;;;25.31;45.01;100580.78;5002754;28;20077;-46
2023/07/25 09:24:18;;;;;;;4.53;1.45;;;;;;;25.31;44.80;100586.47;4994593;28;20049;-46
2023/07/25 09:26:49;;;;;;;2.65;1.60;;;;;;;25.34;44.65;100585.53;4993089;28;20081;-47
2023/07/25 09:29:24;;;;;;;;;;;;;;;25.32;45.83;100583.16;4994409;28;20459;-49
2023/07/25 09:31:51;;;;;;;2.30;1.58;;;;;;;25.68;44.68;100588.56;4996184;28;19933;-46
2023/07/25 09:34:23;;;;;;;2.40;1.92;;;;;;;25.51;43.60;100587.09;4993657;28;20353;-46
2023/07/25 09:36:50;;;;;;;2.22;1.30;;;;;;;25.63;42.37;100586.28;4991500;28;20385;-46
2023/07/25 09:39:17;;;;;;;5.07;2.28;;;;;;;25.51;42.09;100583.44;4993379;28;20504;-45
2023/07/25 09:41:45;;;;;;;4.07;2.00;;;;;;;25.20;42.79;100580.31;4993151;28;20050;-46
2023/07/25 09:44:12;;;;;;;2.78;1.13;;;;;;;24.71;42.89;100577.59;4981831;28;20043;-45
2023/07/25 09:46:50;;;;;;;2.53;1.52;;;;;;;24.90;43.11;100572.25;4993978;28;20455;-46
2023/07/25 09:49:21;;;;;;;3.45;1.45;;;;;;;25.34;42.55;100579.88;4993803;28;20064;-45
2023/07/25 09:52:03;;;;;;;4.23;2.10;;;;;;;25.26;42.63;100578.47;4991236;28;20137;-49
2023/07/25 09:54:30;;;;;;;3.10;1.92;;;;;;;25.35;42.14;100582.25;4994107;28;20089;-48
2023/07/25 09:56:57;;;;;;;3.65;2.38;;;;;;;25.42;41.55;100575.56;4994728;28;20131;-45
2023/07/25 09:59:25;;;;;;;3.85;1.55;;;;;;;25.60;41.25;100581.53;4992386;28;20052;-46
2023/07/25 10:01:55;;;;;;;2.22;1.30;;;;;;;25.87;40.79;100590.41;4992296;28;20074;-47
2023/07/25 10:04:22;;;;;;;3.45;1.65;;;;;;;25.48;40.40;100584.34;4993873;28;20074;-46
2023/07/25 10:06:50;;;;;;;5.60;2.40;;;;;;;25.10;41.37;100581.41;4993016;28;20050;-46
2023/07/25 10:09:18;;;;;;;1.95;1.70;;;;;;;25.30;40.38;100591.31;4993796;28;20060;-46
2023/07/25 10:11:50;;;;;;;4.00;2.03;;;;;;;25.60;39.74;100580.75;4995116;28;20486;-47
2023/07/25 10:14:17;;;;;;;3.88;1.52;;;;;;;25.83;39.37;100589.72;4992887;28;20101;-46
2023/07/25 10:16:44;;;;;;;7.20;1.80;;;;;;;25.50;39.18;100579.00;4989283;28;20042;-46
2023/07/25 10:19:11;;;;;;;3.47;1.90;;;;;;;25.07;39.71;100570.97;4989551;28;20459;-46
2023/07/25 10:21:53;;;;;;;2.80;2.15;;;;;;;24.51;41.32;100568.44;4991141;28;20064;-48
2023/07/25 10:24:20;;;;;;;3.20;1.92;;;;;;;24.32;42.04;100572.16;4992762;28;20078;-48
2023/07/25 10:26:56;;;;;;;3.20;1.92;;;;;;;24.67;41.99;100559.91;4992976;28;20046;-48
2023/07/25 10:29:41;;;;;;;2.50;1.80;;;;;;;25.14;40.82;100567.91;4992464;28;20101;-48
2023/07/25 10:32:15;;;;;;;5.22;2.60;;;;;;;25.31;40.57;100566.63;4989556;28;20097;-47
2023/07/25 10:34:46;;;;;;;3.75;2.00;;;;;;;25.01;40.61;100567.09;4965813;28;20091;-46
2023/07/25 10:37:30;;;;;;;3.97;2.45;;;;;;;24.80;40.55;100557.97;4989616;28;20053;-49
2023/07/25 10:40:03;;;;;;;2.97;2.20;;;;;;;24.35;41.23;100556.34;4985870;28;20125;-46
2023/07/25 10:42:56;;;;;;;7.80;2.65;;;;;;;24.53;41.12;100560.28;4985634;28;20687;-46
2023/07/25 10:45:32;;;;;;;4.55;2.35;;;;;;;24.40;41.41;100561.44;4991620;28;20082;-50
2023/07/25 10:48:00;;;;;;;6.97;2.97;;;;;;;24.21;41.79;100561.13;4990201;28;20035;-48
2023/07/25 10:50:47;;;;;;;6.10;2.75;;;;;;;24.30;41.98;100551.22;4989337;28;20455;-45
2023/07/25 10:53:22;;;;;;;4.85;2.97;;;;;;;24.02;42.12;100553.47;4966435;28;20042;-46
2023/07/25 10:56:04;;;;;;;4.53;3.15;;;;;;;23.46;43.11;100557.63;4990290;28;20051;-45
2023/07/25 10:58:59;;;;;;;6.38;3.08;;;;;;;23.32;44.08;100555.91;4972050;28;20145;-46
2023/07/25 11:01:47;;;;;;;4.63;3.50;;;;;;;23.27;43.84;100553.56;4991875;28;20073;-47
2023/07/25 11:04:31;;;;;;;5.63;2.67;;;;;;;23.03;43.99;100555.69;4989366;28;20074;-49
2023/07/25 11:07:08;;;;;;;4.57;2.80;;;;;;;22.72;44.66;100556.31;4991615;28;20073;-45
2023/07/25 11:09:40;;;;;;;5.85;2.97;;;;;;;22.41;44.65;100548.00;4990942;28;20050;-46
2023/07/25 11:12:09;;;;;;;4.47;3.03;;;;;;;22.13;45.45;100542.06;4992693;28;20378;-46
2023/07/25 11:14:44;;;;;;;9.80;3.92;;;;;;;22.13;46.48;100548.50;4992087;28;20056;-47
2023/07/25 11:17:12;;;;;;;5.95;3.75;;;;;;;22.17;46.62;100537.94;4966450;28;20046;-50
2023/07/25 11:19:39;;;;;;;5.72;3.45;;;;;;;22.22;46.34;100545.91;4991280;28;20137;-47
2023/07/25 11:22:12;;;;;;;7.57;4.13;;;;;;;22.16;46.36;100536.34;4989275;28;20046;-49
2023/07/25 11:24:44;;;;;;;6.43;4.15;;;;;;;22.05;47.35;100551.88;4991690;28;20046;-49
2023/07/25 11:27:12;;;;;;;;;;;;;;;22.04;47.77;100555.91;4989315;28;20078;-48
2023/07/25 11:29:39;;;;;;;8.50;3.65;;;;;;;22.01;47.54;100546.28;4993039;28;19921;-48
2023/07/25 11:32:07;;;;;;;6.88;3.70;;;;;;;22.03;48.05;100555.09;4989277;28;20393;-45
2023/07/25 11:34:34;;;;;;;4.75;3.10;;;;;;;21.95;47.83;100552.84;4998480;28;20051;-45